sensor_id;sensor_type;location;lat;lon;timestamp;temperature;humidity
68804;SHT31;55787;52.678;13.314;2023-02-28T00:01:41;-2.22;90.58
68804;SHT31;55787;52.678;13.314;2023-02-28T00:04:07;-2.32;90.95
68804;SHT31;55787;52.678;13.314;2023-02-28T00:06:35;-2.41;91.14
68804;SHT31;55787;52.678;13.314;2023-02-28T00:09:02;-2.45;91.43
68804;SHT31;55787;52.678;13.314;2023-02-28T00:11:28;-2.54;91.66
68804;SHT31;55787;52.678;13.314;2023-02-28T00:13:56;-2.60;91.75
68804;SHT31;55787;52.678;13.314;2023-02-28T00:16:23;-2.67;91.90
68804;SHT31;55787;52.678;13.314;2023-02-28T00:18:50;-2.72;92.18
68804;SHT31;55787;52.678;13.314;2023-02-28T00:21:18;-2.77;92.52
68804;SHT31;55787;52.678;13.314;2023-02-28T00:23:44;-2.83;92.64
68804;SHT31;55787;52.678;13.314;2023-02-28T00:26:12;-2.87;92.59
68804;SHT31;55787;52.678;13.314;2023-02-28T00:28:38;-2.93;92.95
68804;SHT31;55787;52.678;13.314;2023-02-28T00:31:05;-2.97;92.96
68804;SHT31;55787;52.678;13.314;2023-02-28T00:33:32;-3.01;93.04
68804;SHT31;55787;52.678;13.314;2023-02-28T00:36:10;-3.04;93.19
68804;SHT31;55787;52.678;13.314;2023-02-28T00:38:38;-3.09;93.27
68804;SHT31;55787;52.678;13.314;2023-02-28T00:41:05;-3.11;93.50
68804;SHT31;55787;52.678;13.314;2023-02-28T00:43:37;-3.15;93.95
68804;SHT31;55787;52.678;13.314;2023-02-28T00:46:05;-3.19;93.71
68804;SHT31;55787;52.678;13.314;2023-02-28T00:48:32;-3.24;93.78
68804;SHT31;55787;52.678;13.314;2023-02-28T00:50:59;-3.28;94.31
68804;SHT31;55787;52.678;13.314;2023-02-28T00:53:26;-3.34;94.07
68804;SHT31;55787;52.678;13.314;2023-02-28T00:55:52;-3.36;94.05
68804;SHT31;55787;52.678;13.314;2023-02-28T00:58:19;-3.39;94.06
68804;SHT31;55787;52.678;13.314;2023-02-28T01:00:45;-3.38;94.09
68804;SHT31;55787;52.678;13.314;2023-02-28T01:03:18;-3.42;94.12
68804;SHT31;55787;52.678;13.314;2023-02-28T01:05:46;-3.45;94.16
68804;SHT31;55787;52.678;13.314;2023-02-28T01:08:13;-3.49;94.43
68804;SHT31;55787;52.678;13.314;2023-02-28T01:10:40;-3.52;94.43
68804;SHT31;55787;52.678;13.314;2023-02-28T01:13:07;-3.53;94.75
68804;SHT31;55787;52.678;13.314;2023-02-28T01:15:34;-3.58;94.76
68804;SHT31;55787;52.678;13.314;2023-02-28T01:18:01;-3.65;94.66
68804;SHT31;55787;52.678;13.314;2023-02-28T01:20:27;-3.65;94.72
68804;SHT31;55787;52.678;13.314;2023-02-28T01:22:54;-3.70;94.79
68804;SHT31;55787;52.678;13.314;2023-02-28T01:25:21;-3.72;94.73
68804;SHT31;55787;52.678;13.314;2023-02-28T01:27:47;-3.75;95.00
68804;SHT31;55787;52.678;13.314;2023-02-28T01:30:14;-3.77;95.06
68804;SHT31;55787;52.678;13.314;2023-02-28T01:32:40;-3.79;95.05
68804;SHT31;55787;52.678;13.314;2023-02-28T01:35:07;-3.79;95.38
68804;SHT31;55787;52.678;13.314;2023-02-28T01:37:35;-3.80;95.28
68804;SHT31;55787;52.678;13.314;2023-02-28T01:40:03;-3.83;95.30
68804;SHT31;55787;52.678;13.314;2023-02-28T01:42:30;-3.89;95.35
68804;SHT31;55787;52.678;13.314;2023-02-28T01:45:20;-3.93;95.30
68804;SHT31;55787;52.678;13.314;2023-02-28T01:47:50;-4.03;95.28
68804;SHT31;55787;52.678;13.314;2023-02-28T01:50:21;-4.05;95.86
68804;SHT31;55787;52.678;13.314;2023-02-28T01:52:50;-4.05;95.90
68804;SHT31;55787;52.678;13.314;2023-02-28T01:55:18;-4.04;95.95
68804;SHT31;55787;52.678;13.314;2023-02-28T01:57:50;-4.01;96.07
68804;SHT31;55787;52.678;13.314;2023-02-28T02:00:20;-4.08;95.87
68804;SHT31;55787;52.678;13.314;2023-02-28T02:02:51;-4.13;95.83
68804;SHT31;55787;52.678;13.314;2023-02-28T02:05:27;-4.15;96.05
68804;SHT31;55787;52.678;13.314;2023-02-28T02:07:56;-4.18;96.07
68804;SHT31;55787;52.678;13.314;2023-02-28T02:10:29;-4.21;96.06
68804;SHT31;55787;52.678;13.314;2023-02-28T02:15:41;-4.27;96.22
68804;SHT31;55787;52.678;13.314;2023-02-28T02:18:19;-4.28;96.20
68804;SHT31;55787;52.678;13.314;2023-02-28T02:23:38;-4.34;96.30
68804;SHT31;55787;52.678;13.314;2023-02-28T02:28:57;-4.40;96.16
68804;SHT31;55787;52.678;13.314;2023-02-28T02:31:33;-4.41;96.49
68804;SHT31;55787;52.678;13.314;2023-02-28T02:37:05;-4.42;96.22
68804;SHT31;55787;52.678;13.314;2023-02-28T02:42:16;-4.52;96.22
68804;SHT31;55787;52.678;13.314;2023-02-28T02:45:00;-4.55;96.33
68804;SHT31;55787;52.678;13.314;2023-02-28T02:47:29;-4.61;96.33
68804;SHT31;55787;52.678;13.314;2023-02-28T02:50:01;-4.65;96.34
68804;SHT31;55787;52.678;13.314;2023-02-28T02:52:36;-4.68;96.32
68804;SHT31;55787;52.678;13.314;2023-02-28T02:55:06;-4.69;96.51
68804;SHT31;55787;52.678;13.314;2023-02-28T02:57:46;-4.72;96.45
68804;SHT31;55787;52.678;13.314;2023-02-28T03:00:16;-4.73;96.55
68804;SHT31;55787;52.678;13.314;2023-02-28T03:02:45;-4.75;96.50
68804;SHT31;55787;52.678;13.314;2023-02-28T03:05:35;-4.75;96.66
68804;SHT31;55787;52.678;13.314;2023-02-28T03:08:06;-4.75;96.61
68804;SHT31;55787;52.678;13.314;2023-02-28T03:10:39;-4.80;96.76
68804;SHT31;55787;52.678;13.314;2023-02-28T03:28:00;-4.92;97.39
68804;SHT31;55787;52.678;13.314;2023-02-28T03:33:43;-4.92;97.48
68804;SHT31;55787;52.678;13.314;2023-02-28T03:36:15;-4.95;97.16
68804;SHT31;55787;52.678;13.314;2023-02-28T03:38:49;-4.97;97.79
68804;SHT31;55787;52.678;13.314;2023-02-28T03:41:21;-4.97;97.60
68804;SHT31;55787;52.678;13.314;2023-02-28T03:43:53;-4.99;97.30
68804;SHT31;55787;52.678;13.314;2023-02-28T03:46:24;-5.04;97.22
68804;SHT31;55787;52.678;13.314;2023-02-28T03:48:57;-5.11;97.23
68804;SHT31;55787;52.678;13.314;2023-02-28T03:51:27;-5.13;97.32
68804;SHT31;55787;52.678;13.314;2023-02-28T03:54:05;-5.14;97.38
68804;SHT31;55787;52.678;13.314;2023-02-28T03:56:45;-5.17;97.32
68804;SHT31;55787;52.678;13.314;2023-02-28T03:59:39;-5.21;97.72
68804;SHT31;55787;52.678;13.314;2023-02-28T04:02:08;-5.26;97.53
68804;SHT31;55787;52.678;13.314;2023-02-28T04:04:35;-5.30;97.58
68804;SHT31;55787;52.678;13.314;2023-02-28T04:07:08;-5.32;97.57
68804;SHT31;55787;52.678;13.314;2023-02-28T04:09:35;-5.35;97.49
68804;SHT31;55787;52.678;13.314;2023-02-28T04:12:01;-5.37;97.59
68804;SHT31;55787;52.678;13.314;2023-02-28T04:14:28;-5.35;97.74
68804;SHT31;55787;52.678;13.314;2023-02-28T04:16:54;-5.37;97.65
68804;SHT31;55787;52.678;13.314;2023-02-28T04:19:21;-5.39;97.68
68804;SHT31;55787;52.678;13.314;2023-02-28T04:21:50;-5.41;97.84
68804;SHT31;55787;52.678;13.314;2023-02-28T04:24:22;-5.39;97.88
68804;SHT31;55787;52.678;13.314;2023-02-28T04:26:52;-5.42;97.92
68804;SHT31;55787;52.678;13.314;2023-02-28T04:29:22;-5.47;97.86
68804;SHT31;55787;52.678;13.314;2023-02-28T04:31:49;-5.48;97.86
68804;SHT31;55787;52.678;13.314;2023-02-28T04:34:16;-5.51;97.92
68804;SHT31;55787;52.678;13.314;2023-02-28T04:36:43;-5.47;98.12
68804;SHT31;55787;52.678;13.314;2023-02-28T04:39:09;-5.44;98.00
68804;SHT31;55787;52.678;13.314;2023-02-28T04:41:36;-5.48;97.93
68804;SHT31;55787;52.678;13.314;2023-02-28T04:44:04;-5.51;97.98
68804;SHT31;55787;52.678;13.314;2023-02-28T04:46:30;-5.52;97.97
68804;SHT31;55787;52.678;13.314;2023-02-28T04:48:57;-5.52;98.01
68804;SHT31;55787;52.678;13.314;2023-02-28T04:51:24;-5.51;98.07
68804;SHT31;55787;52.678;13.314;2023-02-28T04:53:51;-5.54;97.91
68804;SHT31;55787;52.678;13.314;2023-02-28T04:56:18;-5.55;98.00
68804;SHT31;55787;52.678;13.314;2023-02-28T04:58:45;-5.57;97.93
68804;SHT31;55787;52.678;13.314;2023-02-28T05:03:43;-5.64;97.71
68804;SHT31;55787;52.678;13.314;2023-02-28T05:06:11;-5.64;97.83
68804;SHT31;55787;52.678;13.314;2023-02-28T05:08:39;-5.65;97.86
68804;SHT31;55787;52.678;13.314;2023-02-28T05:11:15;-5.67;97.84
68804;SHT31;55787;52.678;13.314;2023-02-28T05:13:43;-5.68;97.65
68804;SHT31;55787;52.678;13.314;2023-02-28T05:16:09;-5.74;97.52
68804;SHT31;55787;52.678;13.314;2023-02-28T05:18:37;-5.74;97.51
68804;SHT31;55787;52.678;13.314;2023-02-28T05:21:04;-5.78;97.59
68804;SHT31;55787;52.678;13.314;2023-02-28T05:23:32;-5.78;97.68
68804;SHT31;55787;52.678;13.314;2023-02-28T05:25:59;-5.81;97.60
68804;SHT31;55787;52.678;13.314;2023-02-28T05:28:25;-5.86;97.54
68804;SHT31;55787;52.678;13.314;2023-02-28T05:30:52;-5.89;97.65
68804;SHT31;55787;52.678;13.314;2023-02-28T05:33:19;-5.89;97.69
68804;SHT31;55787;52.678;13.314;2023-02-28T05:35:45;-5.90;97.67
68804;SHT31;55787;52.678;13.314;2023-02-28T05:38:12;-5.92;97.85
68804;SHT31;55787;52.678;13.314;2023-02-28T05:40:39;-5.93;97.83
68804;SHT31;55787;52.678;13.314;2023-02-28T05:43:10;-5.90;98.23
68804;SHT31;55787;52.678;13.314;2023-02-28T05:45:37;-5.86;98.26
68804;SHT31;55787;52.678;13.314;2023-02-28T05:48:04;-5.86;98.40
68804;SHT31;55787;52.678;13.314;2023-02-28T05:50:30;-5.85;98.35
68804;SHT31;55787;52.678;13.314;2023-02-28T05:52:57;-5.82;98.18
68804;SHT31;55787;52.678;13.314;2023-02-28T05:55:24;-5.88;97.44
68804;SHT31;55787;52.678;13.314;2023-02-28T05:57:50;-5.93;97.63
68804;SHT31;55787;52.678;13.314;2023-02-28T06:00:17;-5.93;97.78
68804;SHT31;55787;52.678;13.314;2023-02-28T06:02:46;-5.95;97.75
68804;SHT31;55787;52.678;13.314;2023-02-28T06:05:17;-5.93;97.86
68804;SHT31;55787;52.678;13.314;2023-02-28T06:07:44;-5.95;97.76
68804;SHT31;55787;52.678;13.314;2023-02-28T06:10:11;-5.96;97.77
68804;SHT31;55787;52.678;13.314;2023-02-28T06:12:38;-5.96;97.85
68804;SHT31;55787;52.678;13.314;2023-02-28T06:15:05;-5.90;97.80
68804;SHT31;55787;52.678;13.314;2023-02-28T06:17:31;-5.90;97.87
68804;SHT31;55787;52.678;13.314;2023-02-28T06:19:58;-5.88;97.93
68804;SHT31;55787;52.678;13.314;2023-02-28T06:22:25;-5.79;97.88
68804;SHT31;55787;52.678;13.314;2023-02-28T06:24:52;-5.68;97.88
68804;SHT31;55787;52.678;13.314;2023-02-28T06:27:19;-5.64;97.70
68804;SHT31;55787;52.678;13.314;2023-02-28T06:29:46;-5.62;97.56
68804;SHT31;55787;52.678;13.314;2023-02-28T06:32:13;-5.48;97.49
68804;SHT31;55787;52.678;13.314;2023-02-28T06:34:40;-5.35;97.37
68804;SHT31;55787;52.678;13.314;2023-02-28T06:37:07;-5.30;97.41
68804;SHT31;55787;52.678;13.314;2023-02-28T06:39:33;-5.24;97.36
68804;SHT31;55787;52.678;13.314;2023-02-28T06:42:00;-5.17;97.31
68804;SHT31;55787;52.678;13.314;2023-02-28T06:44:27;-5.01;97.35
68804;SHT31;55787;52.678;13.314;2023-02-28T06:47:04;-4.83;97.27
68804;SHT31;55787;52.678;13.314;2023-02-28T06:49:33;-4.58;96.97
68804;SHT31;55787;52.678;13.314;2023-02-28T06:52:00;-4.27;96.34
68804;SHT31;55787;52.678;13.314;2023-02-28T06:54:27;-3.97;95.37
68804;SHT31;55787;52.678;13.314;2023-02-28T06:56:54;-3.77;94.16
68804;SHT31;55787;52.678;13.314;2023-02-28T06:59:21;-3.72;93.79
68804;SHT31;55787;52.678;13.314;2023-02-28T07:01:47;-3.76;93.77
68804;SHT31;55787;52.678;13.314;2023-02-28T07:04:14;-3.73;94.13
68804;SHT31;55787;52.678;13.314;2023-02-28T07:06:41;-3.65;94.80
68804;SHT31;55787;52.678;13.314;2023-02-28T07:09:08;-3.53;94.65
68804;SHT31;55787;52.678;13.314;2023-02-28T07:11:34;-3.39;94.50
68804;SHT31;55787;52.678;13.314;2023-02-28T07:14:01;-3.22;94.38
68804;SHT31;55787;52.678;13.314;2023-02-28T07:16:28;-2.87;94.26
68804;SHT31;55787;52.678;13.314;2023-02-28T07:18:55;-2.38;92.78
68804;SHT31;55787;52.678;13.314;2023-02-28T07:21:22;-2.14;91.04
68804;SHT31;55787;52.678;13.314;2023-02-28T07:23:48;-1.92;90.32
68804;SHT31;55787;52.678;13.314;2023-02-28T07:26:17;-1.80;89.81
68804;SHT31;55787;52.678;13.314;2023-02-28T07:28:46;-1.49;89.06
68804;SHT31;55787;52.678;13.314;2023-02-28T07:31:13;-1.09;87.88
68804;SHT31;55787;52.678;13.314;2023-02-28T07:33:41;-0.58;86.22
68804;SHT31;55787;52.678;13.314;2023-02-28T07:36:10;-0.36;84.86
68804;SHT31;55787;52.678;13.314;2023-02-28T07:38:46;-0.12;84.26
68804;SHT31;55787;52.678;13.314;2023-02-28T07:41:18;0.01;83.22
68804;SHT31;55787;52.678;13.314;2023-02-28T07:43:46;0.09;83.51
68804;SHT31;55787;52.678;13.314;2023-02-28T07:46:14;0.50;82.18
68804;SHT31;55787;52.678;13.314;2023-02-28T07:48:42;0.90;81.35
68804;SHT31;55787;52.678;13.314;2023-02-28T07:51:09;1.42;79.43
68804;SHT31;55787;52.678;13.314;2023-02-28T07:53:36;1.83;78.07
68804;SHT31;55787;52.678;13.314;2023-02-28T07:56:03;1.79;77.24
68804;SHT31;55787;52.678;13.314;2023-02-28T07:58:30;1.52;78.00
68804;SHT31;55787;52.678;13.314;2023-02-28T08:00:57;1.16;80.42
68804;SHT31;55787;52.678;13.314;2023-02-28T08:03:24;0.79;81.88
68804;SHT31;55787;52.678;13.314;2023-02-28T08:05:51;0.49;82.09
68804;SHT31;55787;52.678;13.314;2023-02-28T08:08:21;0.33;84.04
68804;SHT31;55787;52.678;13.314;2023-02-28T08:10:47;0.17;84.79
68804;SHT31;55787;52.678;13.314;2023-02-28T08:13:14;0.14;85.06
68804;SHT31;55787;52.678;13.314;2023-02-28T08:15:41;0.09;84.44
68804;SHT31;55787;52.678;13.314;2023-02-28T08:18:09;0.09;84.62
68804;SHT31;55787;52.678;13.314;2023-02-28T08:20:36;0.05;85.09
68804;SHT31;55787;52.678;13.314;2023-02-28T08:23:03;0.11;85.56
68804;SHT31;55787;52.678;13.314;2023-02-28T08:25:29;0.15;82.49
68804;SHT31;55787;52.678;13.314;2023-02-28T08:27:56;0.28;80.89
68804;SHT31;55787;52.678;13.314;2023-02-28T08:30:22;0.39;80.91
68804;SHT31;55787;52.678;13.314;2023-02-28T08:32:49;0.48;79.04
68804;SHT31;55787;52.678;13.314;2023-02-28T08:35:16;0.66;77.25
68804;SHT31;55787;52.678;13.314;2023-02-28T08:37:44;0.87;75.42
68804;SHT31;55787;52.678;13.314;2023-02-28T08:40:11;1.18;72.86
68804;SHT31;55787;52.678;13.314;2023-02-28T08:42:44;1.31;74.66
68804;SHT31;55787;52.678;13.314;2023-02-28T08:45:12;2.09;73.11
68804;SHT31;55787;52.678;13.314;2023-02-28T08:47:39;4.19;60.77
68804;SHT31;55787;52.678;13.314;2023-02-28T08:50:07;6.31;48.81
68804;SHT31;55787;52.678;13.314;2023-02-28T08:52:34;8.50;43.66
68804;SHT31;55787;52.678;13.314;2023-02-28T08:55:00;9.49;44.09
68804;SHT31;55787;52.678;13.314;2023-02-28T08:57:27;10.40;36.74
68804;SHT31;55787;52.678;13.314;2023-02-28T08:59:54;10.22;38.16
68804;SHT31;55787;52.678;13.314;2023-02-28T09:02:20;9.76;37.43
68804;SHT31;55787;52.678;13.314;2023-02-28T09:04:47;9.38;36.15
68804;SHT31;55787;52.678;13.314;2023-02-28T09:07:13;9.84;35.86
68804;SHT31;55787;52.678;13.314;2023-02-28T09:09:40;8.03;36.25
68804;SHT31;55787;52.678;13.314;2023-02-28T09:12:21;7.24;39.57
68804;SHT31;55787;52.678;13.314;2023-02-28T09:14:49;6.61;41.38
68804;SHT31;55787;52.678;13.314;2023-02-28T09:17:15;6.06;42.31
68804;SHT31;55787;52.678;13.314;2023-02-28T09:19:42;5.83;41.79
68804;SHT31;55787;52.678;13.314;2023-02-28T09:22:10;6.17;44.74
68804;SHT31;55787;52.678;13.314;2023-02-28T09:24:38;7.38;41.43
68804;SHT31;55787;52.678;13.314;2023-02-28T09:27:10;9.33;36.33
68804;SHT31;55787;52.678;13.314;2023-02-28T09:29:37;10.44;34.47
68804;SHT31;55787;52.678;13.314;2023-02-28T09:32:03;12.39;31.58
68804;SHT31;55787;52.678;13.314;2023-02-28T09:34:32;12.68;29.67
68804;SHT31;55787;52.678;13.314;2023-02-28T09:36:58;11.58;30.88
68804;SHT31;55787;52.678;13.314;2023-02-28T09:39:25;13.15;31.88
68804;SHT31;55787;52.678;13.314;2023-02-28T09:41:55;14.58;29.16
68804;SHT31;55787;52.678;13.314;2023-02-28T09:47:01;16.00;25.81
68804;SHT31;55787;52.678;13.314;2023-02-28T09:49:37;15.53;26.15
68804;SHT31;55787;52.678;13.314;2023-02-28T09:52:09;14.76;27.35
68804;SHT31;55787;52.678;13.314;2023-02-28T09:54:37;15.77;28.24
68804;SHT31;55787;52.678;13.314;2023-02-28T10:00:03;18.16;26.37
68804;SHT31;55787;52.678;13.314;2023-02-28T10:05:28;18.16;25.48
68804;SHT31;55787;52.678;13.314;2023-02-28T10:08:11;18.52;24.25
68804;SHT31;55787;52.678;13.314;2023-02-28T10:10:51;18.41;24.29
68804;SHT31;55787;52.678;13.314;2023-02-28T10:14:24;17.66;26.55
68804;SHT31;55787;52.678;13.314;2023-02-28T10:16:42;18.62;22.96
68804;SHT31;55787;52.678;13.314;2023-02-28T10:21:47;18.44;24.95
68804;SHT31;55787;52.678;13.314;2023-02-28T10:24:30;18.34;25.27
68804;SHT31;55787;52.678;13.314;2023-02-28T10:27:22;18.62;24.57
68804;SHT31;55787;52.678;13.314;2023-02-28T10:29:53;18.55;24.32
68804;SHT31;55787;52.678;13.314;2023-02-28T10:32:23;17.69;26.01
68804;SHT31;55787;52.678;13.314;2023-02-28T10:34:55;17.36;27.08
68804;SHT31;55787;52.678;13.314;2023-02-28T10:37:23;16.66;24.34
68804;SHT31;55787;52.678;13.314;2023-02-28T10:39:50;15.98;27.62
68804;SHT31;55787;52.678;13.314;2023-02-28T10:42:28;15.03;29.03
68804;SHT31;55787;52.678;13.314;2023-02-28T10:45:14;14.41;30.48
68804;SHT31;55787;52.678;13.314;2023-02-28T10:47:56;12.81;33.12
68804;SHT31;55787;52.678;13.314;2023-02-28T10:53:22;11.34;33.36
68804;SHT31;55787;52.678;13.314;2023-02-28T11:07:04;9.69;36.07
68804;SHT31;55787;52.678;13.314;2023-02-28T11:09:37;9.60;34.95
68804;SHT31;55787;52.678;13.314;2023-02-28T11:12:20;9.08;36.01
68804;SHT31;55787;52.678;13.314;2023-02-28T11:17:42;8.59;38.89
68804;SHT31;55787;52.678;13.314;2023-02-28T11:20:19;8.37;38.43
68804;SHT31;55787;52.678;13.314;2023-02-28T11:22:47;8.30;39.37
68804;SHT31;55787;52.678;13.314;2023-02-28T11:25:26;7.96;39.71
68804;SHT31;55787;52.678;13.314;2023-02-28T11:28:00;7.85;40.18
68804;SHT31;55787;52.678;13.314;2023-02-28T11:30:38;7.72;38.78
68804;SHT31;55787;52.678;13.314;2023-02-28T11:36:08;7.70;40.05
68804;SHT31;55787;52.678;13.314;2023-02-28T11:38:36;8.17;37.48
68804;SHT31;55787;52.678;13.314;2023-02-28T11:41:28;8.74;37.44
68804;SHT31;55787;52.678;13.314;2023-02-28T11:44:39;9.57;36.32
68804;SHT31;55787;52.678;13.314;2023-02-28T11:47:26;10.97;33.94
68804;SHT31;55787;52.678;13.314;2023-02-28T11:52:52;11.88;31.84
68804;SHT31;55787;52.678;13.314;2023-02-28T11:55:25;12.29;31.72
68804;SHT31;55787;52.678;13.314;2023-02-28T11:58:08;12.90;30.62
68804;SHT31;55787;52.678;13.314;2023-02-28T12:01:27;12.97;30.76
68804;SHT31;55787;52.678;13.314;2023-02-28T12:06:56;12.70;31.09
68804;SHT31;55787;52.678;13.314;2023-02-28T12:12:57;12.68;31.61
68804;SHT31;55787;52.678;13.314;2023-02-28T12:15:35;13.07;30.36
68804;SHT31;55787;52.678;13.314;2023-02-28T12:18:17;13.28;30.10
68804;SHT31;55787;52.678;13.314;2023-02-28T12:29:09;12.79;31.81
68804;SHT31;55787;52.678;13.314;2023-02-28T12:31:41;13.07;32.39
68804;SHT31;55787;52.678;13.314;2023-02-28T12:34:19;12.95;31.05
68804;SHT31;55787;52.678;13.314;2023-02-28T12:36:47;12.93;30.37
68804;SHT31;55787;52.678;13.314;2023-02-28T12:39:43;12.32;30.88
68804;SHT31;55787;52.678;13.314;2023-02-28T12:42:38;11.38;31.93
68804;SHT31;55787;52.678;13.314;2023-02-28T12:45:12;11.88;32.38
68804;SHT31;55787;52.678;13.314;2023-02-28T12:47:43;11.79;33.32
68804;SHT31;55787;52.678;13.314;2023-02-28T12:50:12;12.22;33.18
68804;SHT31;55787;52.678;13.314;2023-02-28T13:00:34;12.36;32.49
68804;SHT31;55787;52.678;13.314;2023-02-28T13:08:36;12.21;31.56
68804;SHT31;55787;52.678;13.314;2023-02-28T13:11:24;11.74;32.70
68804;SHT31;55787;52.678;13.314;2023-02-28T13:13:59;11.65;33.00
68804;SHT31;55787;52.678;13.314;2023-02-28T13:16:27;11.58;32.71
68804;SHT31;55787;52.678;13.314;2023-02-28T13:19:08;11.84;33.12
68804;SHT31;55787;52.678;13.314;2023-02-28T13:21:43;12.21;31.38
68804;SHT31;55787;52.678;13.314;2023-02-28T13:24:11;11.98;31.78
68804;SHT31;55787;52.678;13.314;2023-02-28T13:29:32;11.40;32.89
68804;SHT31;55787;52.678;13.314;2023-02-28T13:42:34;12.13;31.12
68804;SHT31;55787;52.678;13.314;2023-02-28T13:58:53;12.26;32.77
68804;SHT31;55787;52.678;13.314;2023-02-28T14:02:03;13.38;29.53
68804;SHT31;55787;52.678;13.314;2023-02-28T14:05:00;13.55;29.39
68804;SHT31;55787;52.678;13.314;2023-02-28T14:07:32;13.84;29.28
68804;SHT31;55787;52.678;13.314;2023-02-28T14:10:04;13.97;28.35
68804;SHT31;55787;52.678;13.314;2023-02-28T14:18:56;12.60;29.98
68804;SHT31;55787;52.678;13.314;2023-02-28T14:21:35;13.08;31.66
68804;SHT31;55787;52.678;13.314;2023-02-28T14:27:00;12.36;31.75
68804;SHT31;55787;52.678;13.314;2023-02-28T14:30:13;12.34;30.57
68804;SHT31;55787;52.678;13.314;2023-02-28T14:32:59;12.26;31.41
68804;SHT31;55787;52.678;13.314;2023-02-28T14:38:46;12.47;31.25
68804;SHT31;55787;52.678;13.314;2023-02-28T14:43:58;12.98;30.17
68804;SHT31;55787;52.678;13.314;2023-02-28T14:46:37;12.34;31.43
68804;SHT31;55787;52.678;13.314;2023-02-28T14:49:05;12.34;31.44
68804;SHT31;55787;52.678;13.314;2023-02-28T14:51:33;12.39;31.02
68804;SHT31;55787;52.678;13.314;2023-02-28T14:54:02;12.22;32.16
68804;SHT31;55787;52.678;13.314;2023-02-28T14:56:37;12.08;31.62
68804;SHT31;55787;52.678;13.314;2023-02-28T14:59:06;12.28;31.97
68804;SHT31;55787;52.678;13.314;2023-02-28T15:01:48;12.05;32.15
68804;SHT31;55787;52.678;13.314;2023-02-28T15:04:25;11.70;32.90
68804;SHT31;55787;52.678;13.314;2023-02-28T15:07:15;11.67;33.49
68804;SHT31;55787;52.678;13.314;2023-02-28T15:09:42;11.78;33.80
68804;SHT31;55787;52.678;13.314;2023-02-28T15:12:13;11.67;33.76
68804;SHT31;55787;52.678;13.314;2023-02-28T15:14:43;11.67;33.04
68804;SHT31;55787;52.678;13.314;2023-02-28T15:17:22;11.34;33.25
68804;SHT31;55787;52.678;13.314;2023-02-28T15:19:52;10.61;36.13
68804;SHT31;55787;52.678;13.314;2023-02-28T15:22:35;10.15;35.08
68804;SHT31;55787;52.678;13.314;2023-02-28T15:25:04;9.25;38.10
68804;SHT31;55787;52.678;13.314;2023-02-28T15:27:33;8.81;39.80
68804;SHT31;55787;52.678;13.314;2023-02-28T15:30:06;8.98;40.59
68804;SHT31;55787;52.678;13.314;2023-02-28T15:32:38;8.52;40.22
68804;SHT31;55787;52.678;13.314;2023-02-28T15:37:53;8.13;39.76
68804;SHT31;55787;52.678;13.314;2023-02-28T15:40:30;7.86;40.18
68804;SHT31;55787;52.678;13.314;2023-02-28T15:48:30;6.85;44.53
68804;SHT31;55787;52.678;13.314;2023-02-28T15:53:35;6.52;45.72
68804;SHT31;55787;52.678;13.314;2023-02-28T15:56:05;6.42;44.65
68804;SHT31;55787;52.678;13.314;2023-02-28T15:58:33;6.24;44.82
68804;SHT31;55787;52.678;13.314;2023-02-28T16:01:17;6.00;47.78
68804;SHT31;55787;52.678;13.314;2023-02-28T16:03:48;5.80;47.09
68804;SHT31;55787;52.678;13.314;2023-02-28T16:08:48;5.48;49.10
68804;SHT31;55787;52.678;13.314;2023-02-28T16:11:19;5.35;49.32
68804;SHT31;55787;52.678;13.314;2023-02-28T16:13:46;5.14;50.82
68804;SHT31;55787;52.678;13.314;2023-02-28T16:16:21;4.97;51.45
68804;SHT31;55787;52.678;13.314;2023-02-28T16:18:48;4.81;51.63
68804;SHT31;55787;52.678;13.314;2023-02-28T16:21:15;4.63;50.97
68804;SHT31;55787;52.678;13.314;2023-02-28T16:23:42;4.45;53.39
68804;SHT31;55787;52.678;13.314;2023-02-28T16:26:18;4.13;54.77
68804;SHT31;55787;52.678;13.314;2023-02-28T16:28:46;3.92;54.69
68804;SHT31;55787;52.678;13.314;2023-02-28T16:31:13;3.74;55.56
68804;SHT31;55787;52.678;13.314;2023-02-28T16:33:43;3.63;55.83
68804;SHT31;55787;52.678;13.314;2023-02-28T16:36:20;3.44;56.43
68804;SHT31;55787;52.678;13.314;2023-02-28T16:38:47;3.29;58.70
68804;SHT31;55787;52.678;13.314;2023-02-28T16:41:20;3.15;59.34
68804;SHT31;55787;52.678;13.314;2023-02-28T16:43:50;3.02;59.25
68804;SHT31;55787;52.678;13.314;2023-02-28T16:46:17;2.89;59.06
68804;SHT31;55787;52.678;13.314;2023-02-28T16:48:45;2.68;60.75
68804;SHT31;55787;52.678;13.314;2023-02-28T16:51:13;2.47;60.86
68804;SHT31;55787;52.678;13.314;2023-02-28T16:53:41;2.34;61.77
68804;SHT31;55787;52.678;13.314;2023-02-28T16:56:19;2.14;62.39
68804;SHT31;55787;52.678;13.314;2023-02-28T16:58:47;2.03;63.99
68804;SHT31;55787;52.678;13.314;2023-02-28T17:01:14;1.90;64.40
68804;SHT31;55787;52.678;13.314;2023-02-28T17:03:41;1.69;64.63
68804;SHT31;55787;52.678;13.314;2023-02-28T17:06:20;1.61;65.61
68804;SHT31;55787;52.678;13.314;2023-02-28T17:08:49;1.48;66.66
68804;SHT31;55787;52.678;13.314;2023-02-28T17:11:17;1.38;66.79
68804;SHT31;55787;52.678;13.314;2023-02-28T17:13:44;1.26;67.30
68804;SHT31;55787;52.678;13.314;2023-02-28T17:18:50;1.04;69.26
68804;SHT31;55787;52.678;13.314;2023-02-28T17:21:17;0.96;69.61
68804;SHT31;55787;52.678;13.314;2023-02-28T17:23:43;0.79;69.61
68804;SHT31;55787;52.678;13.314;2023-02-28T17:26:18;0.68;69.70
68804;SHT31;55787;52.678;13.314;2023-02-28T17:28:48;0.59;70.14
68804;SHT31;55787;52.678;13.314;2023-02-28T17:31:15;0.50;70.67
68804;SHT31;55787;52.678;13.314;2023-02-28T17:33:42;0.42;70.66
68804;SHT31;55787;52.678;13.314;2023-02-28T17:36:18;0.32;71.24
68804;SHT31;55787;52.678;13.314;2023-02-28T17:38:48;0.21;71.35
68804;SHT31;55787;52.678;13.314;2023-02-28T17:41:15;0.09;72.41
68804;SHT31;55787;52.678;13.314;2023-02-28T17:43:41;0.02;72.31
68804;SHT31;55787;52.678;13.314;2023-02-28T17:46:17;-0.06;73.04
68804;SHT31;55787;52.678;13.314;2023-02-28T17:48:44;-0.13;73.27
68804;SHT31;55787;52.678;13.314;2023-02-28T17:51:15;-0.24;73.59
68804;SHT31;55787;52.678;13.314;2023-02-28T17:53:42;-0.33;74.36
68804;SHT31;55787;52.678;13.314;2023-02-28T17:56:13;-0.41;74.03
68804;SHT31;55787;52.678;13.314;2023-02-28T17:58:40;-0.50;74.44
68804;SHT31;55787;52.678;13.314;2023-02-28T18:01:07;-0.57;74.71
68804;SHT31;55787;52.678;13.314;2023-02-28T18:03:34;-0.64;74.55
68804;SHT31;55787;52.678;13.314;2023-02-28T18:06:01;-0.71;74.87
68804;SHT31;55787;52.678;13.314;2023-02-28T18:08:28;-0.78;75.02
68804;SHT31;55787;52.678;13.314;2023-02-28T18:10:55;-0.88;75.39
68804;SHT31;55787;52.678;13.314;2023-02-28T18:13:21;-0.92;75.32
68804;SHT31;55787;52.678;13.314;2023-02-28T18:15:48;-1.01;75.16
68804;SHT31;55787;52.678;13.314;2023-02-28T18:18:15;-1.08;76.27